createdAt,value
2019-04-29T00:01:22.793Z,67.00
2019-04-29T00:03:54.983Z,67.10
2019-04-29T00:06:27.143Z,67.00
2019-04-29T00:08:59.524Z,66.90
2019-04-29T00:11:31.735Z,66.70
2019-04-29T00:14:04.113Z,66.60
2019-04-29T00:16:37.821Z,66.50
2019-04-29T00:19:11.832Z,66.40
2019-04-29T00:21:48.588Z,66.90
2019-04-29T00:24:20.782Z,66.10
2019-04-29T00:26:53.135Z,66.10
2019-04-29T00:29:25.177Z,66.30
2019-04-29T00:31:57.082Z,65.70
2019-04-29T00:34:29.943Z,65.50
2019-04-29T00:37:03.177Z,64.40
2019-04-29T00:39:36.860Z,64.70
2019-04-29T00:42:08.523Z,64.50
2019-04-29T00:44:40.557Z,65.00
2019-04-29T00:47:33.254Z,64.30
2019-04-29T00:50:06.898Z,64.10
2019-04-29T00:52:39.432Z,64.50
2019-04-29T00:55:13.144Z,64.10
2019-04-29T00:57:46.429Z,63.60
2019-04-29T01:00:21.166Z,63.60
2019-04-29T01:02:53.705Z,63.70
2019-04-29T01:05:26.592Z,63.10
2019-04-29T01:07:58.866Z,62.50
2019-04-29T01:10:31.526Z,62.50
2019-04-29T01:13:03.501Z,62.60
2019-04-29T01:15:35.747Z,62.30
2019-04-29T01:18:08.405Z,62.30
2019-04-29T01:20:41.791Z,61.80
2019-04-29T01:23:13.840Z,61.60
2019-04-29T01:25:53.872Z,61.30
2019-04-29T01:28:27.408Z,61.20
2019-04-29T01:31:04.601Z,61.20
2019-04-29T01:33:36.645Z,61.20
2019-04-29T01:36:10.458Z,61.00
2019-04-29T01:38:42.512Z,60.40
2019-04-29T01:41:16.100Z,60.20
2019-04-29T01:43:50.152Z,60.20
2019-04-29T01:46:22.333Z,60.10
2019-04-29T01:48:55.419Z,60.50
2019-04-29T01:51:30.285Z,60.40
2019-04-29T01:54:05.163Z,59.80
2019-04-29T01:56:37.642Z,60.20
2019-04-29T01:59:12.726Z,59.30
2019-04-29T02:01:44.915Z,59.40
2019-04-29T02:04:41.842Z,59.30
2019-04-29T02:07:15.007Z,59.20
2019-04-29T02:09:49.233Z,59.20
2019-04-29T02:12:32.539Z,59.00
2019-04-29T02:15:05.301Z,59.10
2019-04-29T02:17:37.178Z,59.00
2019-04-29T02:20:10.787Z,59.00
2019-04-29T02:22:44.951Z,58.90
2019-04-29T02:25:19.067Z,59.00
2019-04-29T02:27:51.214Z,58.90
2019-04-29T02:30:26.974Z,58.90
2019-04-29T02:32:59.270Z,58.60
2019-04-29T02:35:31.615Z,58.40
2019-04-29T02:38:04.983Z,58.00
2019-04-29T02:40:42.128Z,58.20
2019-04-29T02:43:15.505Z,57.90
2019-04-29T02:45:47.553Z,58.10
2019-04-29T02:48:19.726Z,57.90
2019-04-29T02:50:51.764Z,57.70
2019-04-29T02:53:24.287Z,57.40
2019-04-29T02:55:57.746Z,56.80
2019-04-29T02:58:31.864Z,56.70
2019-04-29T03:01:10.464Z,57.10
2019-04-29T03:03:44.194Z,56.40
2019-04-29T03:06:16.807Z,56.10
2019-04-29T03:08:48.932Z,56.50
2019-04-29T03:11:23.008Z,56.00
2019-04-29T03:13:55.002Z,55.80
2019-04-29T03:16:34.828Z,55.60
2019-04-29T03:19:08.439Z,55.60
2019-04-29T03:21:42.292Z,54.90
2019-04-29T03:24:17.006Z,55.20
2019-04-29T03:26:49.548Z,54.80
2019-04-29T03:29:23.081Z,54.90
2019-04-29T03:31:57.497Z,54.60
2019-04-29T03:34:29.620Z,54.40
2019-04-29T03:37:03.097Z,54.60
2019-04-29T03:39:36.424Z,54.60
2019-04-29T03:42:08.629Z,54.40
2019-04-29T03:44:40.776Z,54.00
2019-04-29T03:47:18.596Z,53.70
2019-04-29T03:50:09.165Z,53.60
2019-04-29T03:52:41.624Z,53.30
2019-04-29T03:55:14.417Z,53.30
2019-04-29T03:57:46.493Z,53.40
2019-04-29T04:00:20.194Z,52.70
2019-04-29T04:02:57.890Z,52.20
2019-04-29T04:05:32.377Z,52.20
2019-04-29T04:08:06.077Z,51.90
2019-04-29T04:10:39.788Z,51.70
2019-04-29T04:13:12.092Z,51.50
2019-04-29T04:15:44.073Z,51.10
2019-04-29T04:18:18.485Z,51.00
2019-04-29T04:20:51.250Z,50.50
2019-04-29T04:23:23.147Z,50.10
2019-04-29T04:25:55.912Z,49.70
2019-04-29T04:28:27.924Z,49.60
2019-04-29T04:31:00.154Z,49.40
2019-04-29T04:33:32.065Z,49.30
2019-04-29T04:36:04.357Z,49.40
2019-04-29T04:38:38.162Z,48.90
2019-04-29T04:43:55.241Z,48.50
2019-04-29T04:46:27.718Z,48.10
2019-04-29T04:49:00.034Z,48.30
2019-04-29T04:51:36.534Z,47.80
2019-04-29T04:54:08.806Z,47.20
2019-04-29T04:56:41.177Z,46.70
2019-04-29T04:59:13.173Z,46.20
2019-04-29T05:01:44.993Z,46.20
2019-04-29T05:04:17.474Z,46.00
2019-04-29T05:06:49.476Z,45.30
2019-04-29T05:09:21.466Z,45.40
2019-04-29T05:11:54.029Z,45.00
2019-04-29T05:14:26.373Z,45.00
2019-04-29T05:17:18.753Z,46.00
2019-04-29T05:19:51.389Z,45.60
2019-04-29T05:22:24.756Z,44.60
2019-04-29T05:24:56.976Z,45.00
2019-04-29T05:27:49.705Z,44.50
2019-04-29T05:30:22.209Z,44.10
2019-04-29T05:32:54.059Z,43.60
2019-04-29T05:35:28.356Z,43.10
2019-04-29T05:38:02.056Z,42.70
2019-04-29T05:40:35.750Z,42.80
2019-04-29T05:43:10.177Z,41.90
2019-04-29T05:45:46.301Z,42.70
2019-04-29T05:48:38.000Z,41.90
2019-04-29T05:51:13.106Z,42.90
2019-04-29T05:53:53.194Z,42.20
2019-04-29T05:56:20.602Z,42.20
2019-04-29T05:59:02.547Z,41.90
2019-04-29T06:01:34.663Z,41.50
2019-04-29T06:04:07.378Z,42.50
2019-04-29T06:06:39.504Z,41.80
2019-04-29T06:09:16.604Z,42.00
2019-04-29T06:11:46.003Z,40.80
2019-04-29T06:14:22.057Z,41.00
2019-04-29T06:16:57.249Z,40.90
2019-04-29T06:19:26.678Z,41.10
2019-04-29T06:21:59.836Z,41.20
2019-04-29T06:24:32.218Z,39.90
2019-04-29T06:27:05.383Z,39.90
2019-04-29T06:29:38.424Z,39.50
2019-04-29T06:32:10.649Z,39.30
2019-04-29T06:34:42.916Z,39.60
2019-04-29T06:37:15.285Z,40.00
2019-04-29T06:39:50.593Z,38.90
2019-04-29T06:42:22.918Z,39.70
2019-04-29T06:44:55.168Z,39.50
2019-04-29T06:47:47.108Z,39.80
2019-04-29T06:50:20.118Z,39.80
2019-04-29T06:52:52.308Z,40.00
2019-04-29T06:55:24.399Z,39.80
2019-04-29T06:57:56.600Z,39.00
2019-04-29T07:00:33.111Z,39.20
2019-04-29T07:03:11.291Z,39.60
2019-04-29T07:06:01.639Z,39.50
2019-04-29T07:08:33.883Z,39.90
2019-04-29T07:11:05.774Z,39.30
2019-04-29T07:13:41.068Z,39.00
2019-04-29T07:16:13.173Z,39.10
2019-04-29T07:18:49.274Z,38.80
2019-04-29T07:21:19.022Z,38.50
2019-04-29T07:23:51.212Z,39.40
2019-04-29T07:26:24.040Z,38.70
2019-04-29T07:28:56.118Z,38.50
2019-04-29T07:31:35.871Z,38.50
2019-04-29T07:34:08.578Z,38.60
2019-04-29T07:36:41.449Z,38.30
2019-04-29T07:39:13.616Z,38.70
2019-04-29T07:41:49.510Z,38.60
2019-04-29T07:44:20.030Z,39.10
2019-04-29T07:47:00.259Z,38.60
2019-04-29T07:49:27.607Z,37.90
2019-04-29T07:51:59.934Z,38.30
2019-04-29T07:54:32.063Z,38.50
2019-04-29T07:57:04.642Z,39.00
2019-04-29T07:59:38.460Z,38.70
2019-04-29T08:02:12.181Z,38.30
2019-04-29T08:04:44.175Z,38.70
2019-04-29T08:07:17.824Z,38.30
2019-04-29T08:09:50.137Z,38.60
2019-04-29T08:12:24.885Z,37.90
2019-04-29T08:15:07.215Z,37.30
2019-04-29T08:17:32.460Z,37.60
2019-04-29T08:20:05.315Z,37.90
2019-04-29T08:22:38.988Z,37.20
2019-04-29T08:25:12.035Z,38.00
2019-04-29T08:27:44.522Z,37.70
2019-04-29T08:30:18.331Z,37.20
2019-04-29T08:32:52.114Z,36.90
2019-04-29T08:35:24.330Z,37.90
2019-04-29T08:37:56.794Z,37.70
2019-04-29T08:40:29.327Z,37.60
2019-04-29T08:43:03.874Z,37.40
2019-04-29T08:45:39.064Z,37.30
2019-04-29T08:48:11.612Z,37.40
2019-04-29T08:50:43.650Z,37.20
2019-04-29T08:53:15.925Z,37.40
2019-04-29T08:55:48.683Z,36.80
2019-04-29T08:58:20.540Z,36.70
2019-04-29T09:00:55.825Z,36.30
2019-04-29T09:03:46.814Z,36.70
2019-04-29T09:06:19.616Z,37.20
2019-04-29T09:08:55.431Z,37.60
2019-04-29T09:11:25.275Z,37.30
2019-04-29T09:13:57.504Z,37.20
2019-04-29T09:16:29.835Z,37.30
2019-04-29T09:19:03.120Z,37.20
2019-04-29T09:21:36.987Z,36.90
2019-04-29T09:24:08.940Z,37.10
2019-04-29T09:26:42.491Z,36.30
2019-04-29T09:29:16.014Z,36.70
2019-04-29T09:31:48.174Z,37.10
2019-04-29T09:34:24.645Z,36.70
2019-04-29T09:36:56.180Z,37.10
2019-04-29T09:39:42.000Z,36.70
2019-04-29T09:42:08.122Z,36.50
2019-04-29T09:44:42.862Z,36.40
2019-04-29T09:47:14.528Z,36.20
2019-04-29T09:49:46.608Z,36.00
2019-04-29T09:52:18.436Z,36.70
2019-04-29T09:54:50.850Z,36.90
2019-04-29T09:57:23.401Z,37.10
2019-04-29T10:00:05.443Z,36.70
2019-04-29T10:02:37.948Z,37.70
2019-04-29T10:05:14.482Z,36.80
2019-04-29T10:07:47.554Z,37.10
2019-04-29T10:10:19.789Z,37.00
2019-04-29T10:12:53.992Z,37.20
2019-04-29T10:15:27.597Z,37.60
2019-04-29T10:18:00.897Z,37.50
2019-04-29T10:20:34.666Z,37.50
2019-04-29T10:23:07.570Z,36.30
2019-04-29T10:25:40.532Z,36.50
2019-04-29T10:28:12.806Z,36.90
2019-04-29T10:30:45.476Z,36.70
2019-04-29T10:33:23.194Z,36.50
2019-04-29T10:35:56.115Z,36.80
2019-04-29T10:38:28.402Z,36.60
2019-04-29T10:41:22.780Z,38.00
2019-04-29T10:43:55.640Z,38.00
2019-04-29T10:46:29.201Z,37.70
2019-04-29T10:49:05.254Z,37.40
2019-04-29T10:51:37.611Z,37.10
2019-04-29T10:54:14.127Z,37.40
2019-04-29T10:56:44.944Z,37.50
2019-04-29T10:59:17.571Z,37.70
2019-04-29T11:02:01.773Z,37.40
2019-04-29T11:04:31.623Z,37.30
2019-04-29T11:07:13.891Z,37.60
2019-04-29T11:09:41.447Z,37.40
2019-04-29T11:12:14.717Z,37.40
2019-04-29T11:14:47.267Z,38.00
2019-04-29T11:17:22.765Z,37.70
2019-04-29T11:20:01.777Z,38.20
2019-04-29T11:22:55.601Z,38.40
2019-04-29T11:25:27.849Z,37.70
2019-04-29T11:28:01.426Z,38.30
2019-04-29T11:30:39.376Z,38.30
2019-04-29T11:33:11.292Z,38.30
2019-04-29T11:35:44.995Z,38.30
2019-04-29T11:38:22.503Z,39.20
2019-04-29T11:40:55.650Z,39.50
2019-04-29T11:43:28.794Z,38.50
2019-04-29T11:46:02.064Z,38.70
2019-04-29T11:48:43.389Z,39.10
2019-04-29T11:51:17.058Z,39.30
2019-04-29T11:53:49.438Z,39.30
2019-04-29T11:56:40.892Z,39.90
2019-04-29T11:59:14.467Z,40.20
2019-04-29T12:01:50.996Z,39.60
2019-04-29T12:04:21.890Z,40.40
2019-04-29T12:07:13.567Z,40.30
2019-04-29T12:09:46.529Z,40.10
2019-04-29T12:12:19.422Z,40.30
2019-04-29T12:14:52.841Z,40.30
2019-04-29T12:17:31.237Z,40.40
2019-04-29T12:20:15.269Z,40.50
2019-04-29T12:22:48.960Z,41.30
2019-04-29T12:25:23.051Z,41.50
2019-04-29T12:28:01.562Z,41.90
2019-04-29T12:30:34.621Z,42.20
2019-04-29T12:33:06.120Z,42.20
2019-04-29T12:35:51.554Z,42.50
2019-04-29T12:38:16.599Z,42.40
2019-04-29T12:40:54.696Z,42.50
2019-04-29T12:43:27.686Z,43.40
2019-04-29T12:46:10.523Z,43.30
2019-04-29T12:48:42.703Z,43.40
2019-04-29T12:51:17.013Z,43.70
2019-04-29T12:53:49.068Z,43.60
2019-04-29T12:56:43.138Z,43.90
2019-04-29T12:59:16.779Z,43.90
2019-04-29T13:01:55.943Z,44.30
2019-04-29T13:04:28.127Z,44.60
2019-04-29T13:07:10.862Z,44.90
2019-04-29T13:09:44.672Z,45.00
2019-04-29T13:12:19.326Z,45.40
2019-04-29T13:15:02.211Z,45.30
2019-04-29T13:17:30.387Z,45.40
2019-04-29T13:20:06.841Z,45.50
2019-04-29T13:22:36.943Z,45.90
2019-04-29T13:25:10.419Z,46.00
2019-04-29T13:27:42.404Z,46.10
2019-04-29T13:30:16.404Z,46.10
2019-04-29T13:32:48.758Z,46.20
2019-04-29T13:35:20.862Z,46.00
2019-04-29T13:37:53.090Z,46.30
2019-04-29T13:40:27.848Z,46.30
2019-04-29T13:43:00.716Z,46.50
2019-04-29T13:45:34.791Z,46.50
2019-04-29T13:48:27.677Z,46.70
2019-04-29T13:51:01.160Z,46.80
2019-04-29T13:53:33.508Z,46.90
2019-04-29T13:56:11.530Z,46.90
2019-04-29T13:58:51.297Z,47.00
2019-04-29T14:01:32.862Z,47.10
2019-04-29T14:04:00.153Z,47.20
2019-04-29T14:06:32.171Z,47.40
2019-04-29T14:09:05.619Z,47.30
2019-04-29T14:11:38.301Z,47.60
2019-04-29T14:14:10.266Z,47.50
2019-04-29T14:16:43.089Z,47.40
2019-04-29T14:19:20.446Z,47.50
2019-04-29T14:21:50.963Z,47.40
2019-04-29T14:24:23.687Z,47.40
2019-04-29T14:26:56.124Z,47.70
2019-04-29T14:29:30.261Z,47.50
2019-04-29T14:32:02.137Z,47.70
2019-04-29T14:34:36.732Z,47.60
2019-04-29T14:37:21.240Z,47.60
2019-04-29T14:39:45.888Z,47.60
2019-04-29T14:42:19.997Z,47.70
2019-04-29T14:44:53.797Z,48.20
2019-04-29T14:47:26.177Z,48.10
2019-04-29T14:50:00.646Z,48.50
2019-04-29T14:52:33.330Z,48.90
2019-04-29T14:55:07.062Z,48.40
2019-04-29T14:57:39.295Z,48.40
2019-04-29T15:00:13.758Z,48.60
2019-04-29T15:02:46.243Z,49.10
2019-04-29T15:05:18.425Z,48.70
2019-04-29T15:07:50.722Z,48.90
2019-04-29T15:10:26.598Z,49.10
2019-04-29T15:13:11.385Z,49.00
2019-04-29T15:15:35.383Z,49.20
2019-04-29T15:18:15.913Z,49.10
2019-04-29T15:20:44.190Z,49.10
2019-04-29T15:23:28.061Z,49.00
2019-04-29T15:25:50.087Z,49.00
2019-04-29T15:28:27.146Z,49.10
2019-04-29T15:30:59.677Z,49.10
2019-04-29T15:33:34.738Z,49.00
2019-04-29T15:36:05.267Z,49.40
2019-04-29T15:38:39.870Z,49.50
2019-04-29T15:41:11.949Z,49.70
2019-04-29T15:43:47.840Z,49.60
2019-04-29T15:46:19.750Z,49.60
2019-04-29T15:48:52.513Z,49.80
2019-04-29T15:51:25.591Z,49.80
2019-04-29T15:53:57.759Z,50.00
2019-04-29T15:56:33.783Z,49.90
2019-04-29T15:59:08.806Z,49.80
2019-04-29T16:01:41.348Z,50.10
2019-04-29T16:04:13.272Z,50.00
2019-04-29T16:06:45.160Z,49.90
2019-04-29T16:09:18.600Z,50.20
2019-04-29T16:11:52.199Z,49.90
2019-04-29T16:14:25.821Z,50.60
2019-04-29T16:17:00.959Z,49.80
2019-04-29T16:19:52.389Z,49.80
2019-04-29T16:22:24.477Z,50.10
2019-04-29T16:24:59.499Z,49.80
2019-04-29T16:27:30.566Z,49.90
2019-04-29T16:30:02.532Z,50.00
2019-04-29T16:32:36.084Z,49.90
2019-04-29T16:35:09.675Z,49.80
2019-04-29T16:37:42.417Z,50.80
2019-04-29T16:40:15.568Z,50.00
2019-04-29T16:42:49.048Z,50.10
2019-04-29T16:45:22.961Z,50.10
2019-04-29T16:47:56.102Z,50.80
2019-04-29T16:50:28.533Z,51.00
2019-04-29T16:53:00.696Z,50.30
2019-04-29T16:55:36.010Z,50.30
2019-04-29T16:58:16.385Z,50.70
2019-04-29T17:00:46.830Z,50.70
2019-04-29T17:03:16.108Z,50.70
2019-04-29T17:05:48.199Z,50.90
2019-04-29T17:08:22.135Z,50.90
2019-04-29T17:10:55.542Z,50.90
2019-04-29T17:13:27.381Z,51.00
2019-04-29T17:15:59.873Z,51.00
2019-04-29T17:18:31.938Z,51.00
2019-04-29T17:21:07.375Z,51.50
2019-04-29T17:23:38.918Z,51.40
2019-04-29T17:26:11.505Z,51.50
2019-04-29T17:28:43.524Z,51.60
2019-04-29T17:31:17.577Z,51.80
2019-04-29T17:33:52.076Z,51.80
2019-04-29T17:36:25.823Z,52.00
2019-04-29T17:38:58.131Z,51.80
2019-04-29T17:41:30.229Z,51.90
2019-04-29T17:44:03.615Z,51.70
2019-04-29T17:46:37.522Z,51.80
2019-04-29T17:49:12.038Z,51.90
2019-04-29T17:51:45.896Z,52.10
2019-04-29T17:54:19.819Z,51.90
2019-04-29T17:57:09.939Z,52.00
2019-04-29T17:59:30.716Z,52.50
2019-04-29T18:02:05.398Z,52.30
2019-04-29T18:04:38.848Z,53.00
2019-04-29T18:07:12.906Z,52.60
2019-04-29T18:09:47.349Z,52.70
2019-04-29T18:12:20.443Z,52.50
2019-04-29T18:14:54.929Z,52.60
2019-04-29T18:17:31.110Z,52.70
2019-04-29T18:20:08.518Z,52.80
2019-04-29T18:22:39.365Z,53.10
2019-04-29T18:25:12.924Z,52.30
2019-04-29T18:27:49.025Z,53.00
2019-04-29T18:30:33.195Z,53.40
2019-04-29T18:32:56.249Z,53.00
2019-04-29T18:35:28.399Z,53.30
2019-04-29T18:38:00.586Z,53.30
2019-04-29T18:40:35.756Z,53.50
2019-04-29T18:43:06.996Z,52.80
2019-04-29T18:45:39.441Z,53.70
2019-04-29T18:48:16.686Z,54.40
2019-04-29T18:50:46.334Z,53.60
2019-04-29T18:53:18.292Z,53.80
2019-04-29T18:55:50.452Z,54.00
2019-04-29T18:58:22.630Z,54.30
2019-04-29T19:00:56.400Z,53.80
2019-04-29T19:03:33.234Z,53.90
2019-04-29T19:06:10.381Z,54.20
2019-04-29T19:08:39.110Z,53.90
2019-04-29T19:11:11.230Z,54.00
2019-04-29T19:13:43.615Z,54.40
2019-04-29T19:16:21.619Z,54.30
2019-04-29T19:18:52.021Z,54.10
2019-04-29T19:21:30.491Z,54.30
2019-04-29T19:24:00.690Z,54.50
2019-04-29T19:26:32.808Z,54.40
2019-04-29T19:29:08.148Z,54.70
2019-04-29T19:31:46.798Z,55.00
2019-04-29T19:34:14.601Z,54.90
2019-04-29T19:36:50.668Z,55.00
2019-04-29T19:39:21.788Z,55.00
2019-04-29T19:41:55.735Z,54.90
2019-04-29T19:44:33.267Z,55.00
2019-04-29T19:47:01.859Z,55.10
2019-04-29T19:49:35.850Z,55.20
2019-04-29T19:52:09.118Z,54.90
2019-04-29T19:54:41.477Z,55.30
2019-04-29T19:57:14.953Z,55.30
2019-04-29T19:59:51.222Z,55.10
2019-04-29T20:02:21.068Z,55.20
2019-04-29T20:04:58.989Z,55.50
2019-04-29T20:07:30.347Z,55.30
2019-04-29T20:10:05.569Z,55.70
2019-04-29T20:12:37.699Z,55.50
2019-04-29T20:15:11.367Z,55.60
2019-04-29T20:17:48.963Z,55.50
2019-04-29T20:20:40.018Z,55.20
2019-04-29T20:23:13.093Z,55.70
2019-04-29T20:25:48.034Z,55.90
2019-04-29T20:28:21.364Z,56.10
2019-04-29T20:30:57.037Z,56.10
2019-04-29T20:33:27.249Z,56.10
2019-04-29T20:36:02.389Z,56.90
2019-04-29T20:38:34.984Z,56.30
2019-04-29T20:41:08.232Z,56.40
2019-04-29T20:43:40.925Z,56.50
2019-04-29T20:46:13.171Z,56.60
2019-04-29T20:48:45.656Z,56.70
2019-04-29T20:51:18.550Z,56.80
2019-04-29T20:53:52.780Z,57.00
2019-04-29T20:56:28.861Z,56.80
2019-04-29T20:59:01.997Z,57.20
2019-04-29T21:01:38.175Z,57.30
2019-04-29T21:04:08.385Z,57.40
2019-04-29T21:06:57.546Z,57.50
2019-04-29T21:09:16.554Z,57.50
2019-04-29T21:11:51.624Z,57.60
2019-04-29T21:14:27.219Z,57.50
2019-04-29T21:17:02.280Z,57.90
2019-04-29T21:19:33.174Z,57.90
2019-04-29T21:22:05.996Z,57.70
2019-04-29T21:24:38.031Z,57.90
2019-04-29T21:27:10.257Z,58.00
2019-04-29T21:29:42.591Z,58.10
2019-04-29T21:32:15.610Z,59.10
2019-04-29T21:34:49.632Z,58.00
2019-04-29T21:37:23.232Z,58.40
2019-04-29T21:39:56.670Z,58.40
2019-04-29T21:42:35.781Z,58.60
2019-04-29T21:45:08.294Z,58.70
2019-04-29T21:47:44.328Z,59.00
2019-04-29T21:50:12.073Z,59.20
2019-04-29T21:52:44.716Z,59.30
2019-04-29T21:55:20.745Z,59.20
2019-04-29T21:57:54.496Z,59.30
2019-04-29T22:00:26.984Z,59.60
2019-04-29T22:02:59.175Z,59.70
2019-04-29T22:05:31.745Z,59.80
2019-04-29T22:08:05.174Z,59.90
2019-04-29T22:10:37.343Z,59.80
2019-04-29T22:13:10.528Z,59.90
2019-04-29T22:15:42.696Z,60.00
2019-04-29T22:18:17.840Z,60.00
2019-04-29T22:20:49.157Z,60.20
2019-04-29T22:23:21.613Z,60.70
2019-04-29T22:25:54.764Z,60.50
2019-04-29T22:28:29.366Z,60.70
2019-04-29T22:31:01.394Z,60.70
2019-04-29T22:33:38.524Z,60.90
2019-04-29T22:36:10.161Z,60.90
2019-04-29T22:38:48.613Z,61.00
2019-04-29T22:41:20.297Z,60.70
2019-04-29T22:43:54.656Z,61.00
2019-04-29T22:46:28.127Z,61.10
2019-04-29T22:49:00.319Z,61.30
2019-04-29T22:51:32.369Z,61.30
2019-04-29T22:54:04.511Z,61.30
2019-04-29T22:56:37.428Z,61.40
2019-04-29T22:59:09.539Z,61.30
2019-04-29T23:01:42.271Z,61.60
2019-04-29T23:04:17.889Z,61.80
2019-04-29T23:06:50.204Z,61.50
2019-04-29T23:09:22.442Z,61.70
2019-04-29T23:11:55.711Z,61.50
2019-04-29T23:14:27.928Z,61.70
2019-04-29T23:17:00.240Z,61.70
2019-04-29T23:19:32.231Z,61.90
2019-04-29T23:22:06.914Z,62.40
2019-04-29T23:24:40.823Z,61.80
2019-04-29T23:27:18.206Z,62.00
2019-04-29T23:29:46.729Z,61.80
2019-04-29T23:32:19.028Z,61.80
2019-04-29T23:34:51.105Z,61.60
2019-04-29T23:37:23.800Z,61.90
2019-04-29T23:39:56.901Z,61.60
2019-04-29T23:42:29.399Z,61.80
2019-04-29T23:45:01.556Z,61.80
2019-04-29T23:47:35.680Z,61.50
2019-04-29T23:50:09.392Z,61.60
2019-04-29T23:52:42.842Z,61.60
2019-04-29T23:55:20.384Z,61.50
2019-04-29T23:57:55.548Z,61.80
